EZS26WN LFPO-LSGG
Flight info
| Callsign | EZS26WN |
|---|---|
| Flight time | 0h 54m |
| Altitude | 23000 |
| Route | PILUL DCT PIMUP DCT PIXIS DCT PIBAT DCT LUSAR |
| Aircraft | A320/M-SDE2E3FGHIJ1RWXYZ/LB1 |
Departure
| Time | 2026-05-04 13:44 |
|---|---|
| Airport | Paris-Orly Airport (LFPO) |
Arrival
| Time | 2026-05-04 14:38 |
|---|---|
| Airport | Geneva International Airport (LSGG) |
| Time | Latitude | Longitude | Altitude | Speed | Heading |
|---|---|---|---|---|---|
| 2026-05-04 13:22 | 48.72896 | 2.35670 | 293 ft | 0 kts | 118° |
| 2026-05-04 13:34 | 48.72899 | 2.35660 | 295 ft | 3 kts | 118° |
| 2026-05-04 13:34 | 48.72912 | 2.35624 | 298 ft | 4 kts | 118° |
| 2026-05-04 13:35 | 48.72922 | 2.35594 | 298 ft | 2 kts | 118° |
| 2026-05-04 13:35 | 48.72946 | 2.35527 | 300 ft | 4 kts | 158° |
| 2026-05-04 13:35 | 48.72965 | 2.35528 | 300 ft | 3 kts | 194° |
| 2026-05-04 13:36 | 48.72969 | 2.35529 | 299 ft | 0 kts | 193° |
| 2026-05-04 13:38 | 48.72954 | 2.35525 | 298 ft | 7 kts | 186° |
| 2026-05-04 13:38 | 48.72883 | 2.35548 | 296 ft | 13 kts | 166° |
| 2026-05-04 13:38 | 48.72787 | 2.35587 | 297 ft | 15 kts | 164° |
| 2026-05-04 13:39 | 48.72682 | 2.35632 | 295 ft | 16 kts | 165° |
| 2026-05-04 13:39 | 48.72577 | 2.35678 | 299 ft | 16 kts | 166° |
| 2026-05-04 13:39 | 48.72527 | 2.35697 | 298 ft | 5 kts | 166° |
| 2026-05-04 13:39 | 48.72495 | 2.35702 | 295 ft | 5 kts | 182° |
| 2026-05-04 13:40 | 48.72460 | 2.35665 | 298 ft | 8 kts | 238° |
| 2026-05-04 13:40 | 48.72415 | 2.35622 | 299 ft | 8 kts | 184° |
| 2026-05-04 13:40 | 48.72355 | 2.35641 | 295 ft | 10 kts | 168° |
| 2026-05-04 13:40 | 48.72281 | 2.35613 | 300 ft | 11 kts | 193° |
| 2026-05-04 13:41 | 48.72209 | 2.35613 | 297 ft | 10 kts | 169° |
| 2026-05-04 13:41 | 48.72149 | 2.35633 | 297 ft | 8 kts | 165° |
| 2026-05-04 13:41 | 48.72101 | 2.35657 | 298 ft | 6 kts | 154° |
| 2026-05-04 13:42 | 48.72046 | 2.35722 | 297 ft | 4 kts | 130° |
| 2026-05-04 13:42 | 48.72033 | 2.35749 | 298 ft | 4 kts | 126° |
| 2026-05-04 13:42 | 48.71998 | 2.35837 | 299 ft | 13 kts | 118° |
| 2026-05-04 13:42 | 48.71969 | 2.35942 | 297 ft | 10 kts | 100° |
| 2026-05-04 13:43 | 48.71984 | 2.36088 | 297 ft | 24 kts | 73° |
| 2026-05-04 13:43 | 48.72099 | 2.36709 | 299 ft | 96 kts | 75° |
| 2026-05-04 13:43 | 48.72328 | 2.37956 | 300 ft | 150 kts | 74° |
| 2026-05-04 13:43 | 48.72658 | 2.39570 | 721 ft | 163 kts | 73° |
| 2026-05-04 13:44 | 48.72998 | 2.41227 | 1414 ft | 167 kts | 75° |
| 2026-05-04 13:44 | 48.73324 | 2.43012 | 1840 ft | 186 kts | 75° |
| 2026-05-04 13:44 | 48.73679 | 2.45027 | 2171 ft | 211 kts | 75° |
| 2026-05-04 13:44 | 48.74048 | 2.47310 | 2598 ft | 235 kts | 81° |
| 2026-05-04 13:45 | 48.74237 | 2.49885 | 3136 ft | 255 kts | 86° |
| 2026-05-04 13:45 | 48.74328 | 2.52604 | 4015 ft | 261 kts | 88° |
| 2026-05-04 13:45 | 48.74378 | 2.55369 | 5054 ft | 264 kts | 92° |
| 2026-05-04 13:45 | 48.73839 | 2.58021 | 6076 ft | 271 kts | 124° |
| 2026-05-04 13:46 | 48.72392 | 2.59859 | 7022 ft | 278 kts | 153° |
| 2026-05-04 13:46 | 48.70567 | 2.60854 | 7967 ft | 281 kts | 165° |
| 2026-05-04 13:46 | 48.68651 | 2.61500 | 8902 ft | 282 kts | 169° |
| 2026-05-04 13:46 | 48.66717 | 2.62072 | 9864 ft | 284 kts | 171° |
| 2026-05-04 13:47 | 48.64739 | 2.62153 | 10670 ft | 288 kts | 186° |
| 2026-05-04 13:47 | 48.63428 | 2.61796 | 11231 ft | 291 kts | 194° |
| 2026-05-04 13:47 | 48.61472 | 2.60684 | 11619 ft | 313 kts | 206° |
| 2026-05-04 13:47 | 48.59482 | 2.59129 | 12044 ft | 330 kts | 206° |
| 2026-05-04 13:48 | 48.57423 | 2.57541 | 12678 ft | 338 kts | 206° |
| 2026-05-04 13:48 | 48.55311 | 2.55923 | 12907 ft | 341 kts | 206° |
| 2026-05-04 13:48 | 48.53193 | 2.54298 | 12973 ft | 342 kts | 206° |
| 2026-05-04 13:48 | 48.51064 | 2.52706 | 12966 ft | 341 kts | 201° |
| 2026-05-04 13:49 | 48.48781 | 2.51838 | 12966 ft | 339 kts | 184° |
| 2026-05-04 13:49 | 48.46447 | 2.52035 | 12960 ft | 337 kts | 166° |
| 2026-05-04 13:49 | 48.45355 | 2.52512 | 12965 ft | 336 kts | 158° |
| 2026-05-04 13:50 | 48.43453 | 2.54073 | 12963 ft | 335 kts | 142° |
| 2026-05-04 13:50 | 48.41816 | 2.56537 | 12966 ft | 334 kts | 128° |
| 2026-05-04 13:51 | 48.40352 | 2.59248 | 12968 ft | 335 kts | 129° |
| 2026-05-04 13:51 | 48.38871 | 2.61969 | 12971 ft | 337 kts | 130° |
| 2026-05-04 13:51 | 48.37383 | 2.64693 | 12974 ft | 338 kts | 130° |
| 2026-05-04 13:51 | 48.35880 | 2.67438 | 13595 ft | 342 kts | 130° |
| 2026-05-04 13:52 | 48.32829 | 2.73005 | 14984 ft | 348 kts | 130° |
| 2026-05-04 13:52 | 48.31280 | 2.75819 | 15659 ft | 351 kts | 131° |
| 2026-05-04 13:52 | 48.29716 | 2.78658 | 16314 ft | 354 kts | 131° |
| 2026-05-04 13:53 | 48.28151 | 2.81474 | 16988 ft | 357 kts | 134° |
| 2026-05-04 13:53 | 48.26332 | 2.84019 | 17634 ft | 359 kts | 144° |
| 2026-05-04 13:53 | 48.24353 | 2.86319 | 18287 ft | 362 kts | 144° |
| 2026-05-04 13:54 | 48.20337 | 2.90962 | 19440 ft | 367 kts | 144° |
| 2026-05-04 13:54 | 48.18296 | 2.93314 | 20010 ft | 370 kts | 145° |
| 2026-05-04 13:54 | 48.14192 | 2.98044 | 21154 ft | 375 kts | 145° |
| 2026-05-04 13:55 | 48.12120 | 3.00430 | 21715 ft | 376 kts | 146° |
| 2026-05-04 13:55 | 48.07866 | 3.04991 | 22813 ft | 376 kts | 155° |
| 2026-05-04 13:55 | 48.05500 | 3.06634 | 22949 ft | 369 kts | 160° |
| 2026-05-04 13:56 | 48.03192 | 3.08097 | 22970 ft | 354 kts | 160° |
| 2026-05-04 13:56 | 48.00942 | 3.09511 | 22970 ft | 350 kts | 161° |
| 2026-05-04 13:56 | 47.96469 | 3.12297 | 22970 ft | 348 kts | 161° |
| 2026-05-04 13:57 | 47.94240 | 3.13687 | 22974 ft | 347 kts | 161° |
| 2026-05-04 13:57 | 47.92015 | 3.15081 | 22974 ft | 347 kts | 161° |
| 2026-05-04 13:58 | 47.85350 | 3.19263 | 22976 ft | 346 kts | 161° |
| 2026-05-04 13:58 | 47.80907 | 3.22037 | 22972 ft | 346 kts | 161° |
| 2026-05-04 13:58 | 47.78686 | 3.23422 | 22973 ft | 346 kts | 161° |
| 2026-05-04 13:59 | 47.76467 | 3.24808 | 22973 ft | 346 kts | 161° |
| 2026-05-04 13:59 | 47.74241 | 3.26197 | 22967 ft | 346 kts | 161° |
| 2026-05-04 13:59 | 47.69807 | 3.28956 | 22971 ft | 345 kts | 161° |
| 2026-05-04 14:00 | 47.67591 | 3.30334 | 22971 ft | 345 kts | 161° |
| 2026-05-04 14:00 | 47.63160 | 3.33086 | 22972 ft | 345 kts | 161° |
| 2026-05-04 14:00 | 47.60945 | 3.34459 | 22970 ft | 345 kts | 161° |
| 2026-05-04 14:01 | 47.58725 | 3.35836 | 22962 ft | 345 kts | 161° |
| 2026-05-04 14:01 | 47.56513 | 3.37206 | 22972 ft | 345 kts | 161° |
| 2026-05-04 14:01 | 47.52090 | 3.39936 | 22972 ft | 344 kts | 161° |
| 2026-05-04 14:02 | 47.49885 | 3.41299 | 22972 ft | 344 kts | 161° |
| 2026-05-04 14:02 | 47.47679 | 3.42661 | 22983 ft | 344 kts | 161° |
| 2026-05-04 14:02 | 47.45471 | 3.44021 | 22981 ft | 344 kts | 161° |
| 2026-05-04 14:02 | 47.43264 | 3.45380 | 22983 ft | 344 kts | 161° |
| 2026-05-04 14:03 | 47.41056 | 3.46741 | 22985 ft | 344 kts | 161° |
| 2026-05-04 14:03 | 47.38850 | 3.48101 | 22969 ft | 344 kts | 161° |
| 2026-05-04 14:03 | 47.36644 | 3.49456 | 22988 ft | 343 kts | 161° |
| 2026-05-04 14:03 | 47.34437 | 3.50807 | 22979 ft | 343 kts | 161° |
| 2026-05-04 14:04 | 47.30055 | 3.53490 | 22964 ft | 344 kts | 161° |
| 2026-05-04 14:04 | 47.27847 | 3.54844 | 22969 ft | 344 kts | 160° |
| 2026-05-04 14:04 | 47.25638 | 3.56198 | 22967 ft | 344 kts | 161° |
| 2026-05-04 14:05 | 47.21216 | 3.58895 | 22970 ft | 344 kts | 161° |
| 2026-05-04 14:05 | 47.19005 | 3.60244 | 22971 ft | 344 kts | 161° |
| 2026-05-04 14:05 | 47.16795 | 3.61595 | 22966 ft | 344 kts | 161° |
| 2026-05-04 14:06 | 47.14585 | 3.62944 | 22970 ft | 344 kts | 161° |
| 2026-05-04 14:06 | 47.12374 | 3.64284 | 22970 ft | 344 kts | 161° |
| 2026-05-04 14:06 | 47.10160 | 3.65620 | 22963 ft | 344 kts | 161° |
| 2026-05-04 14:06 | 47.07946 | 3.66957 | 22962 ft | 344 kts | 161° |
| 2026-05-04 14:07 | 47.05730 | 3.68299 | 22962 ft | 345 kts | 161° |
| 2026-05-04 14:07 | 47.03514 | 3.69643 | 22964 ft | 345 kts | 161° |
| 2026-05-04 14:07 | 47.01295 | 3.70990 | 22965 ft | 345 kts | 160° |
| 2026-05-04 14:07 | 46.99080 | 3.72333 | 22959 ft | 345 kts | 161° |
| 2026-05-04 14:08 | 46.96896 | 3.73805 | 22956 ft | 347 kts | 153° |
| 2026-05-04 14:08 | 46.94951 | 3.75931 | 22957 ft | 353 kts | 140° |
| 2026-05-04 14:08 | 46.93375 | 3.78722 | 22963 ft | 360 kts | 126° |
| 2026-05-04 14:08 | 46.92274 | 3.82028 | 22961 ft | 365 kts | 115° |
| 2026-05-04 14:09 | 46.90454 | 3.88977 | 22958 ft | 366 kts | 116° |
| 2026-05-04 14:09 | 46.89536 | 3.92443 | 22948 ft | 366 kts | 116° |
| 2026-05-04 14:10 | 46.87685 | 3.99390 | 22960 ft | 367 kts | 116° |
| 2026-05-04 14:10 | 46.86761 | 4.02861 | 22954 ft | 367 kts | 116° |
| 2026-05-04 14:10 | 46.85837 | 4.06332 | 22956 ft | 367 kts | 116° |
| 2026-05-04 14:10 | 46.84912 | 4.09802 | 22950 ft | 367 kts | 116° |
| 2026-05-04 14:11 | 46.83984 | 4.13270 | 22965 ft | 366 kts | 116° |
| 2026-05-04 14:11 | 46.82126 | 4.20190 | 22974 ft | 366 kts | 116° |
| 2026-05-04 14:11 | 46.81198 | 4.23649 | 22981 ft | 366 kts | 116° |
| 2026-05-04 14:12 | 46.80407 | 4.27193 | 22977 ft | 370 kts | 107° |
| 2026-05-04 14:12 | 46.79876 | 4.30882 | 22979 ft | 371 kts | 107° |
| 2026-05-04 14:12 | 46.78811 | 4.38251 | 22987 ft | 372 kts | 107° |
| 2026-05-04 14:13 | 46.78272 | 4.41942 | 23005 ft | 372 kts | 107° |
| 2026-05-04 14:13 | 46.77733 | 4.45634 | 23005 ft | 372 kts | 107° |
| 2026-05-04 14:13 | 46.77194 | 4.49313 | 22986 ft | 371 kts | 107° |
| 2026-05-04 14:13 | 46.76651 | 4.52993 | 22985 ft | 370 kts | 107° |
| 2026-05-04 14:14 | 46.76108 | 4.56659 | 22990 ft | 370 kts | 107° |
| 2026-05-04 14:14 | 46.75022 | 4.63999 | 22988 ft | 370 kts | 107° |
| 2026-05-04 14:14 | 46.74481 | 4.67663 | 22989 ft | 370 kts | 107° |
| 2026-05-04 14:15 | 46.73389 | 4.75002 | 22997 ft | 370 kts | 108° |
| 2026-05-04 14:15 | 46.72292 | 4.82340 | 23001 ft | 370 kts | 108° |
| 2026-05-04 14:16 | 46.71196 | 4.89673 | 22985 ft | 370 kts | 108° |
| 2026-05-04 14:16 | 46.70645 | 4.93340 | 22986 ft | 371 kts | 108° |
| 2026-05-04 14:17 | 46.69537 | 5.00641 | 22992 ft | 372 kts | 108° |
| 2026-05-04 14:17 | 46.68975 | 5.04321 | 22997 ft | 372 kts | 108° |
| 2026-05-04 14:17 | 46.67848 | 5.11684 | 23001 ft | 373 kts | 108° |
| 2026-05-04 14:18 | 46.67283 | 5.15368 | 23009 ft | 373 kts | 108° |
| 2026-05-04 14:18 | 46.66162 | 5.22742 | 23013 ft | 373 kts | 108° |
| 2026-05-04 14:19 | 46.65051 | 5.30128 | 22991 ft | 373 kts | 108° |
| 2026-05-04 14:19 | 46.64496 | 5.33818 | 22995 ft | 374 kts | 108° |
| 2026-05-04 14:19 | 46.63934 | 5.37508 | 23000 ft | 374 kts | 108° |
| 2026-05-04 14:19 | 46.63370 | 5.41197 | 23002 ft | 374 kts | 108° |
| 2026-05-04 14:20 | 46.62807 | 5.44894 | 23007 ft | 374 kts | 108° |
| 2026-05-04 14:20 | 46.62242 | 5.48600 | 23007 ft | 381 kts | 108° |
| 2026-05-04 14:20 | 46.61648 | 5.52417 | 22335 ft | 391 kts | 108° |
| 2026-05-04 14:21 | 46.60469 | 5.59987 | 21608 ft | 377 kts | 108° |
| 2026-05-04 14:21 | 46.59896 | 5.63684 | 20949 ft | 373 kts | 107° |
| 2026-05-04 14:21 | 46.59324 | 5.67355 | 20459 ft | 371 kts | 107° |
| 2026-05-04 14:21 | 46.58750 | 5.71003 | 20015 ft | 369 kts | 107° |
| 2026-05-04 14:22 | 46.58176 | 5.74623 | 19560 ft | 367 kts | 107° |
| 2026-05-04 14:22 | 46.57455 | 5.78155 | 19101 ft | 361 kts | 118° |
| 2026-05-04 14:22 | 46.56246 | 5.81268 | 18670 ft | 350 kts | 131° |
| 2026-05-04 14:22 | 46.54617 | 5.83836 | 18247 ft | 342 kts | 144° |
| 2026-05-04 14:23 | 46.50804 | 5.87760 | 17393 ft | 332 kts | 149° |
| 2026-05-04 14:23 | 46.48937 | 5.89636 | 16984 ft | 330 kts | 149° |
| 2026-05-04 14:23 | 46.47054 | 5.91529 | 16538 ft | 329 kts | 149° |
| 2026-05-04 14:24 | 46.45178 | 5.93414 | 16107 ft | 328 kts | 149° |
| 2026-05-04 14:24 | 46.43309 | 5.95290 | 15680 ft | 327 kts | 149° |
| 2026-05-04 14:24 | 46.41441 | 5.97160 | 15259 ft | 326 kts | 149° |
| 2026-05-04 14:24 | 46.39576 | 5.99025 | 14745 ft | 324 kts | 149° |
| 2026-05-04 14:25 | 46.37880 | 6.01129 | 14172 ft | 322 kts | 131° |
| 2026-05-04 14:25 | 46.36763 | 6.07252 | 12927 ft | 327 kts | 82° |
| 2026-05-04 14:25 | 46.37602 | 6.10305 | 12314 ft | 333 kts | 56° |
| 2026-05-04 14:26 | 46.39158 | 6.12830 | 11703 ft | 340 kts | 46° |
| 2026-05-04 14:26 | 46.40831 | 6.15285 | 11081 ft | 344 kts | 46° |
| 2026-05-04 14:26 | 46.42529 | 6.17751 | 10498 ft | 348 kts | 45° |
| 2026-05-04 14:26 | 46.44242 | 6.20238 | 9916 ft | 350 kts | 46° |
| 2026-05-04 14:27 | 46.45959 | 6.22741 | 9279 ft | 347 kts | 46° |
| 2026-05-04 14:27 | 46.47630 | 6.25193 | 8653 ft | 336 kts | 46° |
| 2026-05-04 14:27 | 46.49248 | 6.27579 | 8044 ft | 327 kts | 46° |
| 2026-05-04 14:27 | 46.50823 | 6.29902 | 7441 ft | 319 kts | 47° |
| 2026-05-04 14:28 | 46.52345 | 6.32163 | 7062 ft | 303 kts | 47° |
| 2026-05-04 14:28 | 46.53758 | 6.34280 | 6964 ft | 278 kts | 47° |
| 2026-05-04 14:28 | 46.55005 | 6.36292 | 6978 ft | 264 kts | 58° |
| 2026-05-04 14:28 | 46.55717 | 6.38677 | 6972 ft | 249 kts | 83° |
| 2026-05-04 14:29 | 46.55226 | 6.43185 | 6977 ft | 220 kts | 127° |
| 2026-05-04 14:29 | 46.53098 | 6.45873 | 7008 ft | 189 kts | 163° |
| 2026-05-04 14:30 | 46.51841 | 6.46327 | 6985 ft | 186 kts | 176° |
| 2026-05-04 14:30 | 46.50545 | 6.46229 | 6982 ft | 188 kts | 192° |
| 2026-05-04 14:30 | 46.48018 | 6.45239 | 6981 ft | 188 kts | 196° |
| 2026-05-04 14:31 | 46.46829 | 6.44451 | 6988 ft | 188 kts | 212° |
| 2026-05-04 14:31 | 46.44905 | 6.42032 | 6881 ft | 182 kts | 223° |
| 2026-05-04 14:32 | 46.43133 | 6.39435 | 6473 ft | 180 kts | 224° |
| 2026-05-04 14:32 | 46.42257 | 6.38138 | 6234 ft | 179 kts | 224° |
| 2026-05-04 14:32 | 46.41387 | 6.36848 | 5990 ft | 179 kts | 223° |
| 2026-05-04 14:32 | 46.40517 | 6.35557 | 5760 ft | 179 kts | 224° |
| 2026-05-04 14:33 | 46.39657 | 6.34283 | 5525 ft | 180 kts | 224° |
| 2026-05-04 14:33 | 46.38780 | 6.32985 | 5295 ft | 180 kts | 224° |
| 2026-05-04 14:33 | 46.37900 | 6.31681 | 5049 ft | 182 kts | 224° |
| 2026-05-04 14:33 | 46.37018 | 6.30376 | 4809 ft | 179 kts | 225° |
| 2026-05-04 14:34 | 46.36170 | 6.29120 | 4567 ft | 169 kts | 225° |
| 2026-05-04 14:34 | 46.35366 | 6.27931 | 4346 ft | 164 kts | 225° |
| 2026-05-04 14:34 | 46.34571 | 6.26758 | 4132 ft | 163 kts | 225° |
| 2026-05-04 14:34 | 46.33780 | 6.25589 | 3915 ft | 163 kts | 225° |
| 2026-05-04 14:35 | 46.32987 | 6.24418 | 3700 ft | 162 kts | 225° |
| 2026-05-04 14:35 | 46.32464 | 6.23646 | 3560 ft | 162 kts | 225° |
| 2026-05-04 14:35 | 46.31665 | 6.22466 | 3343 ft | 163 kts | 225° |
| 2026-05-04 14:35 | 46.30878 | 6.21306 | 3129 ft | 164 kts | 225° |
| 2026-05-04 14:36 | 46.30096 | 6.20154 | 2900 ft | 156 kts | 225° |
| 2026-05-04 14:36 | 46.29346 | 6.19049 | 2671 ft | 150 kts | 226° |
| 2026-05-04 14:36 | 46.28634 | 6.17999 | 2459 ft | 147 kts | 226° |
| 2026-05-04 14:36 | 46.27924 | 6.16954 | 2239 ft | 145 kts | 227° |
| 2026-05-04 14:37 | 46.27222 | 6.15921 | 2039 ft | 144 kts | 227° |
| 2026-05-04 14:37 | 46.26518 | 6.14885 | 1844 ft | 144 kts | 227° |
| 2026-05-04 14:37 | 46.25816 | 6.13852 | 1651 ft | 144 kts | 228° |
| 2026-05-04 14:37 | 46.25114 | 6.12819 | 1452 ft | 144 kts | 228° |
| 2026-05-04 14:38 | 46.24443 | 6.11830 | 1371 ft | 121 kts | 226° |
| 2026-05-04 14:38 | 46.24033 | 6.11229 | 1374 ft | 64 kts | 226° |
| 2026-05-04 14:38 | 46.23815 | 6.10918 | 1379 ft | 38 kts | 225° |
| 2026-05-04 14:38 | 46.23608 | 6.10735 | 1382 ft | 33 kts | 196° |
| 2026-05-04 14:39 | 46.23478 | 6.10680 | 1388 ft | 0 kts | 195° |
| 2026-05-04 14:40 | 46.23450 | 6.10725 | 1399 ft | 10 kts | 59° |